PWSweather.com
Personal Weather Stations
Station Observations
LEONMETEO
LeonES 24008

LeonES 24008

Lat: 42.6055559, Lon: -5.5752249

Elevation: 2690

Station Type: La Crosse WS3600

Latest ConditionsUpdated 10:39:19 AM GMT+01:01 Thursday, Apr 2, 2015
Currently Today's Max Today's Min Today's Average
Temperature 52.1°F11.2°C 52.1°F11.2°C 38.1°F3.4°C 43.7°F6.5°C
Dew Point 37.3°F2.9°C 37.5°F3.1°C 28.0°F-2.2°C 32.0°F0.0°C
Winds - N16091.8 kmh N Calm Calm - Calm Calm
Wind Gusts -- -- - -
Humidity 57% 68% 56% 63%
Pressure 30.10 in1019.3 mb 30.16 in1021.3 mb 30.09 in1019.0 mb -
Hour Temp Dew Point Humidity Winds Wind Gusts Pressure Precip Precip Rate Daily Precip Total
10:39 AM 52.1°F11.2°C 37.3°F2.9°C 57% - N16091.8 kmh N -- 30.10 in1019.3 mb 0.00 in0.0 mm 0.00 in0.0 mm 0.00 in0.0 mm
10:34 AM 51.9°F11.1°C 37.5°F3.1°C 58% - N16091.8 kmh N -- 30.10 in1019.3 mb 0.00 in0.0 mm 0.00 in0.0 mm 0.00 in0.0 mm
10:29 AM 51.4°F10.8°C 37.0°F2.8°C 58% - N16091.8 kmh N -- 30.10 in1019.3 mb 0.00 in0.0 mm 0.00 in0.0 mm 0.00 in0.0 mm
10:24 AM 50.9°F10.5°C 37.0°F2.8°C 59% - N16091.8 kmh N -- 30.10 in1019.3 mb 0.00 in0.0 mm 0.00 in0.0 mm 0.00 in0.0 mm
10:19 AM 50.7°F10.4°C 36.8°F2.7°C 59% - N16091.8 kmh N -- 30.10 in1019.3 mb 0.00 in0.0 mm 0.00 in0.0 mm 0.00 in0.0 mm
10:14 AM 50.1°F10.1°C 36.8°F2.7°C 60% - N16091.8 kmh N -- 30.10 in1019.3 mb 0.00 in0.0 mm 0.00 in0.0 mm 0.00 in0.0 mm
10:09 AM 49.8°F9.9°C 36.9°F2.7°C 60% - N16091.8 kmh N -- 30.10 in1019.3 mb 0.00 in0.0 mm 0.00 in0.0 mm 0.00 in0.0 mm
10:04 AM 49.6°F9.8°C 36.7°F2.6°C 61% - N16091.8 kmh N -- 30.10 in1019.3 mb 0.00 in0.0 mm 0.00 in0.0 mm 0.00 in0.0 mm
09:59 AM 49.1°F9.5°C 36.6°F2.6°C 62% - N16091.8 kmh N -- 30.10 in1019.3 mb 0.00 in0.0 mm 0.00 in0.0 mm 0.00 in0.0 mm
09:54 AM 48.7°F9.3°C 36.3°F2.4°C 62% - N16091.8 kmh N -- 30.10 in1019.3 mb 0.00 in0.0 mm 0.00 in0.0 mm 0.00 in0.0 mm
09:49 AM 48.3°F9.1°C 36.3°F2.4°C 63% - N16091.8 kmh N -- 30.09 in1019.0 mb 0.00 in0.0 mm 0.00 in0.0 mm 0.00 in0.0 mm
09:44 AM 47.8°F8.8°C 35.8°F2.1°C 63% - N16091.8 kmh N -- 30.09 in1019.0 mb 0.00 in0.0 mm 0.00 in0.0 mm 0.00 in0.0 mm
09:38 AM 47.4°F8.6°C 35.4°F1.9°C 63% - N16091.8 kmh N -- 30.09 in1019.0 mb 0.00 in0.0 mm 0.00 in0.0 mm 0.00 in0.0 mm
09:33 AM 46.9°F8.3°C 35.3°F1.8°C 64% - N16091.8 kmh N -- 30.09 in1019.0 mb 0.00 in0.0 mm 0.00 in0.0 mm 0.00 in0.0 mm
09:28 AM 46.4°F8.0°C 34.8°F1.6°C 64% - N16091.8 kmh N -- 30.09 in1019.0 mb 0.00 in0.0 mm 0.00 in0.0 mm 0.00 in0.0 mm
09:24 AM 45.8°F7.7°C 34.7°F1.5°C 65% - N16091.8 kmh N -- 30.09 in1019.0 mb 0.00 in0.0 mm 0.00 in0.0 mm 0.00 in0.0 mm
09:19 AM 45.3°F7.4°C 34.2°F1.2°C 65% - N16091.8 kmh N -- 30.10 in1019.3 mb 0.00 in0.0 mm 0.00 in0.0 mm 0.00 in0.0 mm
09:13 AM 44.9°F7.2°C 33.8°F1.0°C 65% - N16091.8 kmh N -- 30.10 in1019.3 mb 0.00 in0.0 mm 0.00 in0.0 mm 0.00 in0.0 mm
09:08 AM 44.2°F6.8°C 33.1°F0.6°C 65% - N16091.8 kmh N -- 30.10 in1019.3 mb 0.00 in0.0 mm 0.00 in0.0 mm 0.00 in0.0 mm
09:03 AM 43.7°F6.5°C 32.6°F0.3°C 65% - N16091.8 kmh N -- 30.09 in1019.0 mb 0.00 in0.0 mm 0.00 in0.0 mm 0.00 in0.0 mm
08:58 AM 43.3°F6.3°C 32.7°F0.4°C 66% - N16091.8 kmh N -- 30.10 in1019.3 mb 0.00 in0.0 mm 0.00 in0.0 mm 0.00 in0.0 mm
08:53 AM 42.9°F6.1°C 32.3°F0.2°C 66% - N16091.8 kmh N -- 30.09 in1019.0 mb 0.00 in0.0 mm 0.00 in0.0 mm 0.00 in0.0 mm
08:48 AM 42.6°F5.9°C 32.0°F0.0°C 66% - N16091.8 kmh N -- 30.09 in1019.0 mb 0.00 in0.0 mm 0.00 in0.0 mm 0.00 in0.0 mm
08:43 AM 42.2°F5.7°C 31.6°F-0.2°C 66% - N16091.8 kmh N -- 30.10 in1019.3 mb 0.00 in0.0 mm 0.00 in0.0 mm 0.00 in0.0 mm
08:38 AM 41.9°F5.5°C 31.7°F-0.2°C 67% - N16091.8 kmh N -- 30.10 in1019.3 mb 0.00 in0.0 mm 0.00 in0.0 mm 0.00 in0.0 mm
08:33 AM 41.7°F5.4°C 31.5°F-0.3°C 67% - N16091.8 kmh N -- 30.10 in1019.3 mb 0.00 in0.0 mm 0.00 in0.0 mm 0.00 in0.0 mm
08:28 AM 41.1°F5.1°C 31.4°F-0.3°C 68% - N16091.8 kmh N -- 30.10 in1019.3 mb 0.00 in0.0 mm 0.00 in0.0 mm 0.00 in0.0 mm
08:23 AM 40.6°F4.8°C 30.8°F-0.7°C 68% - N16091.8 kmh N -- 30.10 in1019.3 mb 0.00 in0.0 mm 0.00 in0.0 mm 0.00 in0.0 mm
08:18 AM 40.2°F4.6°C 30.5°F-0.8°C 68% - N16091.8 kmh N -- 30.10 in1019.3 mb 0.00 in0.0 mm 0.00 in0.0 mm 0.00 in0.0 mm
08:13 AM 39.5°F4.2°C 29.8°F-1.2°C 68% - N16091.8 kmh N -- 30.10 in1019.3 mb 0.00 in0.0 mm 0.00 in0.0 mm 0.00 in0.0 mm
08:08 AM 39.2°F4.0°C 29.4°F-1.4°C 68% - N16091.8 kmh N -- 30.10 in1019.3 mb 0.00 in0.0 mm 0.00 in0.0 mm 0.00 in0.0 mm
08:03 AM 38.8°F3.8°C 29.1°F-1.6°C 68% - N16091.8 kmh N -- 30.10 in1019.3 mb 0.00 in0.0 mm 0.00 in0.0 mm 0.00 in0.0 mm
07:58 AM 38.3°F3.5°C 28.6°F-1.9°C 68% - N16091.8 kmh N -- 30.10 in1019.3 mb 0.00 in0.0 mm 0.00 in0.0 mm 0.00 in0.0 mm
07:53 AM 38.3°F3.5°C 28.6°F-1.9°C 68% - N16091.8 kmh N -- 30.10 in1019.3 mb 0.00 in0.0 mm 0.00 in0.0 mm 0.00 in0.0 mm
07:48 AM 38.1°F3.4°C 28.0°F-2.2°C 67% - N16091.8 kmh N -- 30.10 in1019.3 mb 0.00 in0.0 mm 0.00 in0.0 mm 0.00 in0.0 mm
07:43 AM 38.1°F3.4°C 28.0°F-2.2°C 67% - N16091.8 kmh N -- 30.10 in1019.3 mb 0.00 in0.0 mm 0.00 in0.0 mm 0.00 in0.0 mm
07:38 AM 38.1°F3.4°C 28.0°F-2.2°C 67% - N16091.8 kmh N -- 30.09 in1019.0 mb 0.00 in0.0 mm 0.00 in0.0 mm 0.00 in0.0 mm
07:33 AM 38.3°F3.5°C 28.2°F-2.1°C 67% - N16091.8 kmh N -- 30.09 in1019.0 mb 0.00 in0.0 mm 0.00 in0.0 mm 0.00 in0.0 mm
07:28 AM 38.4°F3.6°C 28.4°F-2.0°C 67% - N16091.8 kmh N -- 30.10 in1019.3 mb 0.00 in0.0 mm 0.00 in0.0 mm 0.00 in0.0 mm
07:23 AM 38.6°F3.7°C 28.9°F-1.7°C 68% - N16091.8 kmh N -- 30.09 in1019.0 mb 0.00 in0.0 mm 0.00 in0.0 mm 0.00 in0.0 mm
07:18 AM 38.8°F3.8°C 29.1°F-1.6°C 68% - N16091.8 kmh N -- 30.09 in1019.0 mb 0.00 in0.0 mm 0.00 in0.0 mm 0.00 in0.0 mm
07:13 AM 38.8°F3.8°C 29.1°F-1.6°C 68% - N16091.8 kmh N -- 30.09 in1019.0 mb 0.00 in0.0 mm 0.00 in0.0 mm 0.00 in0.0 mm
07:08 AM 38.8°F3.8°C 29.1°F-1.6°C 68% - N16091.8 kmh N -- 30.10 in1019.3 mb 0.00 in0.0 mm 0.00 in0.0 mm 0.00 in0.0 mm
07:03 AM 38.8°F3.8°C 29.1°F-1.6°C 68% - N16091.8 kmh N -- 30.10 in1019.3 mb 0.00 in0.0 mm 0.00 in0.0 mm 0.00 in0.0 mm
06:58 AM 38.8°F3.8°C 29.1°F-1.6°C 68% - N16091.8 kmh N -- 30.10 in1019.3 mb 0.00 in0.0 mm 0.00 in0.0 mm 0.00 in0.0 mm
06:53 AM 39.0°F3.9°C 28.9°F-1.7°C 68% - N16091.8 kmh N -- 30.10 in1019.3 mb 0.00 in0.0 mm 0.00 in0.0 mm 0.00 in0.0 mm
06:48 AM 39.2°F4.0°C 29.4°F-1.4°C 68% - N16091.8 kmh N -- 30.09 in1019.0 mb 0.00 in0.0 mm 0.00 in0.0 mm 0.00 in0.0 mm
06:43 AM 39.3°F4.1°C 29.6°F-1.3°C 68% - N16091.8 kmh N -- 30.10 in1019.3 mb 0.00 in0.0 mm 0.00 in0.0 mm 0.00 in0.0 mm
06:38 AM 39.2°F4.0°C 29.4°F-1.4°C 68% - N16091.8 kmh N -- 30.10 in1019.3 mb 0.00 in0.0 mm 0.00 in0.0 mm 0.00 in0.0 mm
06:33 AM 39.2°F4.0°C 29.4°F-1.4°C 68% - N16091.8 kmh N -- 30.10 in1019.3 mb 0.00 in0.0 mm 0.00 in0.0 mm 0.00 in0.0 mm
06:28 AM 39.2°F4.0°C 29.4°F-1.4°C 68% - N16091.8 kmh N -- 30.09 in1019.0 mb 0.00 in0.0 mm 0.00 in0.0 mm 0.00 in0.0 mm
06:23 AM 39.3°F4.1°C 29.6°F-1.3°C 68% - N16091.8 kmh N -- 30.09 in1019.0 mb 0.00 in0.0 mm 0.00 in0.0 mm 0.00 in0.0 mm
06:18 AM 39.3°F4.1°C 29.6°F-1.3°C 68% - N16091.8 kmh N -- 30.09 in1019.0 mb 0.00 in0.0 mm 0.00 in0.0 mm 0.00 in0.0 mm
06:13 AM 39.5°F4.2°C 29.8°F-1.2°C 68% - N16091.8 kmh N -- 30.09 in1019.0 mb 0.00 in0.0 mm 0.00 in0.0 mm 0.00 in0.0 mm
06:08 AM 39.7°F4.3°C 29.6°F-1.3°C 68% - N16091.8 kmh N -- 30.09 in1019.0 mb 0.00 in0.0 mm 0.00 in0.0 mm 0.00 in0.0 mm
06:03 AM 39.7°F4.3°C 29.6°F-1.3°C 68% - N16091.8 kmh N -- 30.09 in1019.0 mb 0.00 in0.0 mm 0.00 in0.0 mm 0.00 in0.0 mm
05:58 AM 39.7°F4.3°C 29.6°F-1.3°C 68% - N16091.8 kmh N -- 30.09 in1019.0 mb 0.00 in0.0 mm 0.00 in0.0 mm 0.00 in0.0 mm
05:52 AM 39.7°F4.3°C 29.6°F-1.3°C 67% - N16091.8 kmh N -- 30.09 in1019.0 mb 0.00 in0.0 mm 0.00 in0.0 mm 0.00 in0.0 mm
05:47 AM 39.7°F4.3°C 29.6°F-1.3°C 67% - N16091.8 kmh N -- 30.09 in1019.0 mb 0.00 in0.0 mm 0.00 in0.0 mm 0.00 in0.0 mm
05:42 AM 39.9°F4.4°C 29.7°F-1.3°C 67% - N16091.8 kmh N -- 30.09 in1019.0 mb 0.00 in0.0 mm 0.00 in0.0 mm 0.00 in0.0 mm
05:37 AM 40.1°F4.5°C 29.9°F-1.2°C 67% - N16091.8 kmh N -- 30.09 in1019.0 mb 0.00 in0.0 mm 0.00 in0.0 mm 0.00 in0.0 mm
05:33 AM 40.2°F4.6°C 30.1°F-1.1°C 67% - N16091.8 kmh N -- 30.09 in1019.0 mb 0.00 in0.0 mm 0.00 in0.0 mm 0.00 in0.0 mm
05:28 AM 40.2°F4.6°C 30.1°F-1.1°C 66% - N16091.8 kmh N -- 30.09 in1019.0 mb 0.00 in0.0 mm 0.00 in0.0 mm 0.00 in0.0 mm
05:23 AM 40.2°F4.6°C 30.1°F-1.1°C 67% - N16091.8 kmh N -- 30.09 in1019.0 mb 0.00 in0.0 mm 0.00 in0.0 mm 0.00 in0.0 mm
05:17 AM 40.2°F4.6°C 30.1°F-1.1°C 67% - N16091.8 kmh N -- 30.09 in1019.0 mb 0.00 in0.0 mm 0.00 in0.0 mm 0.00 in0.0 mm
05:12 AM 40.2°F4.6°C 29.7°F-1.3°C 66% - N16091.8 kmh N -- 30.09 in1019.0 mb 0.00 in0.0 mm 0.00 in0.0 mm 0.00 in0.0 mm
05:07 AM 40.2°F4.6°C 29.7°F-1.3°C 66% - N16091.8 kmh N -- 30.09 in1019.0 mb 0.00 in0.0 mm 0.00 in0.0 mm 0.00 in0.0 mm
05:02 AM 40.2°F4.6°C 29.7°F-1.3°C 66% - N16091.8 kmh N -- 30.09 in1019.0 mb 0.00 in0.0 mm 0.00 in0.0 mm 0.00 in0.0 mm
04:57 AM 40.2°F4.6°C 29.7°F-1.3°C 66% - N16091.8 kmh N -- 30.10 in1019.3 mb 0.00 in0.0 mm 0.00 in0.0 mm 0.00 in0.0 mm
04:52 AM 40.6°F4.8°C 29.7°F-1.3°C 65% - N16091.8 kmh N -- 30.10 in1019.3 mb 0.00 in0.0 mm 0.00 in0.0 mm 0.00 in0.0 mm
04:47 AM 40.8°F4.9°C 29.9°F-1.2°C 65% - N16091.8 kmh N -- 30.10 in1019.3 mb 0.00 in0.0 mm 0.00 in0.0 mm 0.00 in0.0 mm
04:42 AM 41.1°F5.1°C 30.2°F-1.0°C 65% - N16091.8 kmh N -- 30.10 in1019.3 mb 0.00 in0.0 mm 0.00 in0.0 mm 0.00 in0.0 mm
04:37 AM 41.3°F5.2°C 30.4°F-0.9°C 65% - N16091.8 kmh N -- 30.10 in1019.3 mb 0.00 in0.0 mm 0.00 in0.0 mm 0.00 in0.0 mm
04:32 AM 41.3°F5.2°C 30.4°F-0.9°C 65% - N16091.8 kmh N -- 30.11 in1019.6 mb 0.00 in0.0 mm 0.00 in0.0 mm 0.00 in0.0 mm
04:27 AM 41.5°F5.3°C 30.2°F-1.0°C 65% - N16091.8 kmh N -- 30.10 in1019.3 mb 0.00 in0.0 mm 0.00 in0.0 mm 0.00 in0.0 mm
04:22 AM 41.5°F5.3°C 30.2°F-1.0°C 64% - N16091.8 kmh N -- 30.11 in1019.6 mb 0.00 in0.0 mm 0.00 in0.0 mm 0.00 in0.0 mm
04:17 AM 41.7°F5.4°C 30.4°F-0.9°C 64% - N16091.8 kmh N -- 30.11 in1019.6 mb 0.00 in0.0 mm 0.00 in0.0 mm 0.00 in0.0 mm
04:12 AM 41.7°F5.4°C 30.4°F-0.9°C 64% - N16091.8 kmh N -- 30.11 in1019.6 mb 0.00 in0.0 mm 0.00 in0.0 mm 0.00 in0.0 mm
04:07 AM 42.0°F5.6°C 30.7°F-0.7°C 64% - N16091.8 kmh N -- 30.11 in1019.6 mb 0.00 in0.0 mm 0.00 in0.0 mm 0.00 in0.0 mm
04:02 AM 42.4°F5.8°C 30.6°F-0.8°C 63% - N16091.8 kmh N -- 30.11 in1019.6 mb 0.00 in0.0 mm 0.00 in0.0 mm 0.00 in0.0 mm
03:57 AM 42.4°F5.8°C 30.6°F-0.8°C 63% - N16091.8 kmh N -- 30.11 in1019.6 mb 0.00 in0.0 mm 0.00 in0.0 mm 0.00 in0.0 mm
03:52 AM 42.9°F6.1°C 31.2°F-0.4°C 63% - N16091.8 kmh N -- 30.12 in1020.0 mb 0.00 in0.0 mm 0.00 in0.0 mm 0.00 in0.0 mm
03:47 AM 43.1°F6.2°C 31.3°F-0.4°C 63% - N16091.8 kmh N -- 30.11 in1019.6 mb 0.00 in0.0 mm 0.00 in0.0 mm 0.00 in0.0 mm
03:42 AM 43.3°F6.3°C 31.5°F-0.3°C 63% - N16091.8 kmh N -- 30.12 in1020.0 mb 0.00 in0.0 mm 0.00 in0.0 mm 0.00 in0.0 mm
03:37 AM 43.5°F6.4°C 31.7°F-0.2°C 63% - N16091.8 kmh N -- 30.12 in1020.0 mb 0.00 in0.0 mm 0.00 in0.0 mm 0.00 in0.0 mm
03:32 AM 43.7°F6.5°C 31.9°F-0.1°C 63% - N16091.8 kmh N -- 30.12 in1020.0 mb 0.00 in0.0 mm 0.00 in0.0 mm 0.00 in0.0 mm
03:27 AM 43.8°F6.6°C 31.6°F-0.2°C 62% - N16091.8 kmh N -- 30.12 in1020.0 mb 0.00 in0.0 mm 0.00 in0.0 mm 0.00 in0.0 mm
03:22 AM 44.2°F6.8°C 32.0°F0.0°C 62% - N16091.8 kmh N -- 30.12 in1020.0 mb 0.00 in0.0 mm 0.00 in0.0 mm 0.00 in0.0 mm
03:17 AM 44.2°F6.8°C 32.0°F0.0°C 62% - N16091.8 kmh N -- 30.12 in1020.0 mb 0.00 in0.0 mm 0.00 in0.0 mm 0.00 in0.0 mm
03:12 AM 44.2°F6.8°C 32.0°F0.0°C 62% - N16091.8 kmh N -- 30.12 in1020.0 mb 0.00 in0.0 mm 0.00 in0.0 mm 0.00 in0.0 mm
03:07 AM 44.4°F6.9°C 31.8°F-0.1°C 61% - N16091.8 kmh N -- 30.12 in1020.0 mb 0.00 in0.0 mm 0.00 in0.0 mm 0.00 in0.0 mm
03:02 AM 44.7°F7.1°C 32.1°F0.1°C 61% - N16091.8 kmh N -- 30.12 in1020.0 mb 0.00 in0.0 mm 0.00 in0.0 mm 0.00 in0.0 mm
02:57 AM 44.7°F7.1°C 32.1°F0.1°C 61% - N16091.8 kmh N -- 30.13 in1020.3 mb 0.00 in0.0 mm 0.00 in0.0 mm 0.00 in0.0 mm
02:52 AM 45.1°F7.3°C 32.5°F0.3°C 61% - N16091.8 kmh N -- 30.12 in1020.0 mb 0.00 in0.0 mm 0.00 in0.0 mm 0.00 in0.0 mm
02:47 AM 45.1°F7.3°C 32.5°F0.3°C 61% - N16091.8 kmh N -- 30.13 in1020.3 mb 0.00 in0.0 mm 0.00 in0.0 mm 0.00 in0.0 mm
02:42 AM 45.3°F7.4°C 32.6°F0.3°C 61% - N16091.8 kmh N -- 30.13 in1020.3 mb 0.00 in0.0 mm 0.00 in0.0 mm 0.00 in0.0 mm
02:37 AM 45.3°F7.4°C 32.6°F0.3°C 61% - N16091.8 kmh N -- 30.13 in1020.3 mb 0.00 in0.0 mm 0.00 in0.0 mm 0.00 in0.0 mm
02:32 AM 45.5°F7.5°C 32.8°F0.4°C 61% - N16091.8 kmh N -- 30.13 in1020.3 mb 0.00 in0.0 mm 0.00 in0.0 mm 0.00 in0.0 mm
02:27 AM 45.5°F7.5°C 32.8°F0.4°C 61% - N16091.8 kmh N -- 30.13 in1020.3 mb 0.00 in0.0 mm 0.00 in0.0 mm 0.00 in0.0 mm
02:22 AM 45.6°F7.6°C 33.0°F0.6°C 61% - N16091.8 kmh N -- 30.13 in1020.3 mb 0.00 in0.0 mm 0.00 in0.0 mm 0.00 in0.0 mm
02:17 AM 46.0°F7.8°C 33.3°F0.7°C 61% - N16091.8 kmh N -- 30.13 in1020.3 mb 0.00 in0.0 mm 0.00 in0.0 mm 0.00 in0.0 mm
02:12 AM 46.0°F7.8°C 33.3°F0.7°C 61% - N16091.8 kmh N -- 30.13 in1020.3 mb 0.00 in0.0 mm 0.00 in0.0 mm 0.00 in0.0 mm
02:06 AM 46.2°F7.9°C 33.4°F0.8°C 61% - N16091.8 kmh N -- 30.13 in1020.3 mb 0.00 in0.0 mm 0.00 in0.0 mm 0.00 in0.0 mm
02:01 AM 46.2°F7.9°C 33.4°F0.8°C 61% - N16091.8 kmh N -- 30.13 in1020.3 mb 0.00 in0.0 mm 0.00 in0.0 mm 0.00 in0.0 mm
01:56 AM 46.5°F8.1°C 33.4°F0.8°C 60% - N16091.8 kmh N -- 30.14 in1020.7 mb 0.00 in0.0 mm 0.00 in0.0 mm 0.00 in0.0 mm
01:51 AM 46.5°F8.1°C 33.4°F0.8°C 60% - N16091.8 kmh N -- 30.14 in1020.7 mb 0.00 in0.0 mm 0.00 in0.0 mm 0.00 in0.0 mm
01:47 AM 46.7°F8.2°C 33.6°F0.9°C 60% - N16091.8 kmh N -- 30.14 in1020.7 mb 0.00 in0.0 mm 0.00 in0.0 mm 0.00 in0.0 mm
01:41 AM 46.9°F8.3°C 33.8°F1.0°C 60% - N16091.8 kmh N -- 30.14 in1020.7 mb 0.00 in0.0 mm 0.00 in0.0 mm 0.00 in0.0 mm
01:36 AM 47.1°F8.4°C 33.5°F0.8°C 60% - N16091.8 kmh N -- 30.14 in1020.7 mb 0.00 in0.0 mm 0.00 in0.0 mm 0.00 in0.0 mm
01:31 AM 47.1°F8.4°C 33.5°F0.8°C 59% - N16091.8 kmh N -- 30.14 in1020.7 mb 0.00 in0.0 mm 0.00 in0.0 mm 0.00 in0.0 mm
01:26 AM 47.3°F8.5°C 33.7°F0.9°C 59% - N16091.8 kmh N -- 30.14 in1020.7 mb 0.00 in0.0 mm 0.00 in0.0 mm 0.00 in0.0 mm
01:21 AM 47.3°F8.5°C 33.7°F0.9°C 59% - N16091.8 kmh N -- 30.14 in1020.7 mb 0.00 in0.0 mm 0.00 in0.0 mm 0.00 in0.0 mm
01:16 AM 47.4°F8.6°C 33.4°F0.8°C 59% - N16091.8 kmh N -- 30.14 in1020.7 mb 0.00 in0.0 mm 0.00 in0.0 mm 0.00 in0.0 mm
01:11 AM 47.4°F8.6°C 33.4°F0.8°C 58% - N16091.8 kmh N -- 30.14 in1020.7 mb 0.00 in0.0 mm 0.00 in0.0 mm 0.00 in0.0 mm
01:06 AM 47.8°F8.8°C 33.7°F0.9°C 58% - N16091.8 kmh N -- 30.15 in1021.0 mb 0.00 in0.0 mm 0.00 in0.0 mm 0.00 in0.0 mm
01:01 AM 47.8°F8.8°C 33.7°F0.9°C 58% - N16091.8 kmh N -- 30.15 in1021.0 mb 0.00 in0.0 mm 0.00 in0.0 mm 0.00 in0.0 mm
12:56 AM 48.0°F8.9°C 33.9°F1.1°C 58% - N16091.8 kmh N -- 30.15 in1021.0 mb 0.00 in0.0 mm 0.00 in0.0 mm 0.00 in0.0 mm
12:51 AM 48.3°F9.1°C 34.2°F1.2°C 58% - N16091.8 kmh N -- 30.15 in1021.0 mb 0.00 in0.0 mm 0.00 in0.0 mm 0.00 in0.0 mm
12:46 AM 48.5°F9.2°C 34.4°F1.3°C 58% - N16091.8 kmh N -- 30.15 in1021.0 mb 0.00 in0.0 mm 0.00 in0.0 mm 0.00 in0.0 mm
12:41 AM 48.9°F9.4°C 34.3°F1.3°C 57% - N16091.8 kmh N -- 30.15 in1021.0 mb 0.00 in0.0 mm 0.00 in0.0 mm 0.00 in0.0 mm
12:36 AM 48.9°F9.4°C 34.3°F1.3°C 57% - N16091.8 kmh N -- 30.15 in1021.0 mb 0.00 in0.0 mm 0.00 in0.0 mm 0.00 in0.0 mm
12:31 AM 49.1°F9.5°C 34.4°F1.3°C 57% - N16091.8 kmh N -- 30.15 in1021.0 mb 0.00 in0.0 mm 0.00 in0.0 mm 0.00 in0.0 mm
12:26 AM 49.2°F9.6°C 34.6°F1.4°C 57% - N16091.8 kmh N -- 30.15 in1021.0 mb 0.00 in0.0 mm 0.00 in0.0 mm 0.00 in0.0 mm
12:21 AM 49.4°F9.7°C 34.3°F1.3°C 56% - N16091.8 kmh N -- 30.15 in1021.0 mb 0.00 in0.0 mm 0.00 in0.0 mm 0.00 in0.0 mm
12:16 AM 49.6°F9.8°C 34.5°F1.4°C 56% - N16091.8 kmh N -- 30.15 in1021.0 mb 0.00 in0.0 mm 0.00 in0.0 mm 0.00 in0.0 mm
12:11 AM 49.6°F9.8°C 34.5°F1.4°C 56% - N16091.8 kmh N -- 30.15 in1021.0 mb 0.00 in0.0 mm 0.00 in0.0 mm 0.00 in0.0 mm
12:06 AM 50.1°F10.1°C 35.0°F1.7°C 56% - N16091.8 kmh N -- 30.16 in1021.3 mb 0.00 in0.0 mm 0.00 in0.0 mm 0.00 in0.0 mm
12:01 AM 50.5°F10.3°C 34.9°F1.6°C 56% - N16091.8 kmh N -- 30.15 in1021.0 mb 0.00 in0.0 mm 0.00 in0.0 mm 0.00 in0.0 mm